createdAt,value
2019-04-30T00:00:14.000Z,101013
2019-04-30T00:01:18.000Z,101020
2019-04-30T00:03:17.000Z,101020
2019-04-30T00:05:14.000Z,101013
2019-04-30T00:06:30.000Z,101016
2019-04-30T00:08:15.000Z,101015
2019-04-30T00:10:29.000Z,101020
2019-04-30T00:12:15.000Z,101019
2019-04-30T00:14:29.000Z,101018
2019-04-30T00:16:14.000Z,101014
2019-04-30T00:18:13.000Z,101012
2019-04-30T00:19:14.000Z,101012
2019-04-30T00:20:16.000Z,101015
2019-04-30T00:22:30.000Z,101013
2019-04-30T00:24:13.000Z,101012
2019-04-30T00:25:14.000Z,101008
2019-04-30T00:26:31.000Z,101011
2019-04-30T00:28:30.000Z,101011
2019-04-30T00:30:29.000Z,101008
2019-04-30T00:32:30.000Z,101009
2019-04-30T00:34:29.000Z,101004
2019-04-30T00:36:16.000Z,101006
2019-04-30T00:38:29.000Z,101002
2019-04-30T00:39:31.000Z,101002
2019-04-30T00:41:30.000Z,101005
2019-04-30T00:43:30.000Z,101001
2019-04-30T00:45:29.000Z,100993
2019-04-30T00:47:29.000Z,101000
2019-04-30T00:49:21.000Z,100999
2019-04-30T00:51:14.000Z,100996
2019-04-30T00:52:30.000Z,100999
2019-04-30T00:53:31.000Z,100996
2019-04-30T00:55:29.000Z,100998
2019-04-30T00:57:14.000Z,100994
2019-04-30T00:58:23.000Z,100995
2019-04-30T01:00:14.000Z,100994
2019-04-30T01:01:29.000Z,100997
2019-04-30T01:03:29.000Z,100991
2019-04-30T01:05:29.000Z,100995
2019-04-30T01:07:29.000Z,100995
2019-04-30T01:09:29.000Z,100991
2019-04-30T01:11:29.000Z,100989
2019-04-30T01:13:28.000Z,100993
2019-04-30T01:14:28.000Z,100987
2019-04-30T01:16:28.000Z,100988
2019-04-30T01:17:28.000Z,100984
2019-04-30T01:19:13.000Z,100971
2019-04-30T01:20:28.000Z,100974
2019-04-30T01:22:28.000Z,100977
2019-04-30T01:24:28.000Z,100976
2019-04-30T01:26:28.000Z,100974
2019-04-30T01:28:13.000Z,100977
2019-04-30T01:29:28.000Z,100970
2019-04-30T01:31:28.000Z,100974
2019-04-30T01:33:28.000Z,100969
2019-04-30T01:34:43.000Z,100977
2019-04-30T01:36:28.000Z,100963
2019-04-30T01:37:28.000Z,100963
2019-04-30T01:39:28.000Z,100965
2019-04-30T01:41:28.000Z,100961
2019-04-30T01:43:28.000Z,100966
2019-04-30T01:45:28.000Z,100963
2019-04-30T01:47:28.000Z,100963
2019-04-30T01:49:28.000Z,100959
2019-04-30T01:51:19.000Z,100959
2019-04-30T01:52:28.000Z,100968
2019-04-30T01:53:43.000Z,100968
2019-04-30T01:55:43.000Z,100959
2019-04-30T01:57:43.000Z,100966
2019-04-30T01:59:43.000Z,100969
2019-04-30T02:01:28.000Z,100970
2019-04-30T02:02:43.000Z,100965
2019-04-30T02:03:43.000Z,100965
2019-04-30T02:05:43.000Z,100969
2019-04-30T02:06:43.000Z,100966
2019-04-30T02:08:43.000Z,100970
2019-04-30T02:09:44.000Z,100970
2019-04-30T02:11:13.000Z,100973
2019-04-30T02:12:44.000Z,100970
2019-04-30T02:14:44.000Z,100972
2019-04-30T02:15:44.000Z,100968
2019-04-30T02:16:44.000Z,100970
2019-04-30T02:18:44.000Z,100969
2019-04-30T02:20:29.000Z,100965
2019-04-30T02:21:29.000Z,100965
2019-04-30T02:23:44.000Z,100968
2019-04-30T02:25:44.000Z,100966
2019-04-30T02:27:44.000Z,100966
2019-04-30T02:28:44.000Z,100967
2019-04-30T02:30:29.000Z,100969
2019-04-30T02:32:29.000Z,100971
2019-04-30T02:34:29.000Z,100968
2019-04-30T02:35:44.000Z,100967
2019-04-30T02:37:29.000Z,100966
2019-04-30T02:38:29.000Z,100967
2019-04-30T02:40:29.000Z,100981
2019-04-30T02:42:29.000Z,100974
2019-04-30T02:43:29.000Z,100972
2019-04-30T02:45:29.000Z,100969
2019-04-30T02:47:29.000Z,100973
2019-04-30T02:49:29.000Z,100967
2019-04-30T02:51:29.000Z,100960
2019-04-30T02:53:44.000Z,100972
2019-04-30T02:55:29.000Z,100967
2019-04-30T02:56:29.000Z,100964
2019-04-30T02:58:29.000Z,100961
2019-04-30T02:59:29.000Z,100962
2019-04-30T03:01:29.000Z,100960
2019-04-30T03:03:29.000Z,100963
2019-04-30T03:04:44.000Z,100966
2019-04-30T03:06:29.000Z,100966
2019-04-30T03:07:29.000Z,100961
2019-04-30T03:08:44.000Z,100968
2019-04-30T03:10:13.000Z,100961
2019-04-30T03:11:29.000Z,100968
2019-04-30T03:13:29.000Z,100965
2019-04-30T03:15:29.000Z,100970
2019-04-30T03:16:29.000Z,100967
2019-04-30T03:17:29.000Z,100965
2019-04-30T03:18:29.000Z,100961
2019-04-30T03:20:14.000Z,100969
2019-04-30T03:21:29.000Z,100956
2019-04-30T03:23:29.000Z,100962
2019-04-30T03:24:44.000Z,100959
2019-04-30T03:26:44.000Z,100958
2019-04-30T03:28:29.000Z,100960
2019-04-30T03:29:29.000Z,100952
2019-04-30T03:30:29.000Z,100953
2019-04-30T03:31:29.000Z,100956
2019-04-30T03:33:29.000Z,100952
2019-04-30T03:35:29.000Z,100955
2019-04-30T03:37:44.000Z,100955
2019-04-30T03:39:29.000Z,100958
2019-04-30T03:41:29.000Z,100955
2019-04-30T03:43:29.000Z,100960
2019-04-30T03:45:29.000Z,100961
2019-04-30T03:46:29.000Z,100956
2019-04-30T03:47:29.000Z,100959
2019-04-30T03:49:29.000Z,100958
2019-04-30T03:50:29.000Z,100959
2019-04-30T03:52:44.000Z,100965
2019-04-30T03:54:29.000Z,100969
2019-04-30T03:55:29.000Z,100963
2019-04-30T03:57:29.000Z,100963
2019-04-30T03:59:29.000Z,100965
2019-04-30T04:01:44.000Z,100962
2019-04-30T04:03:29.000Z,100960
2019-04-30T04:04:29.000Z,100964
2019-04-30T04:06:44.000Z,100964
2019-04-30T04:08:13.000Z,100967
2019-04-30T04:09:29.000Z,100966
2019-04-30T04:11:29.000Z,100961
2019-04-30T04:13:29.000Z,100965
2019-04-30T04:15:29.000Z,100962
2019-04-30T04:17:29.000Z,100960
2019-04-30T04:19:44.000Z,100972
2019-04-30T04:21:14.000Z,100969
2019-04-30T04:22:29.000Z,100968
2019-04-30T04:24:29.000Z,100968
2019-04-30T04:26:29.000Z,100963
2019-04-30T04:28:28.000Z,100964
2019-04-30T04:29:29.000Z,100961
2019-04-30T04:30:29.000Z,100960
2019-04-30T04:32:29.000Z,100962
2019-04-30T04:34:29.000Z,100960
2019-04-30T04:36:29.000Z,100960
2019-04-30T04:38:29.000Z,100962
2019-04-30T04:40:29.000Z,100964
2019-04-30T04:42:29.000Z,100961
2019-04-30T04:44:44.000Z,100964
2019-04-30T04:46:29.000Z,100961
2019-04-30T04:48:29.000Z,100967
2019-04-30T04:49:29.000Z,100966
2019-04-30T04:51:14.000Z,100964
2019-04-30T04:52:29.000Z,100969
2019-04-30T04:54:29.000Z,100973
2019-04-30T04:56:29.000Z,100975
2019-04-30T04:58:29.000Z,100974
2019-04-30T05:00:44.000Z,100973
2019-04-30T05:01:44.000Z,100978
2019-04-30T05:03:28.000Z,100982
2019-04-30T05:04:29.000Z,100979
2019-04-30T05:05:29.000Z,100968
2019-04-30T05:07:44.000Z,100979
2019-04-30T05:09:44.000Z,100982
2019-04-30T05:11:29.000Z,100989
2019-04-30T05:13:44.000Z,100988
2019-04-30T05:14:44.000Z,100989
2019-04-30T05:16:44.000Z,100994
2019-04-30T05:18:44.000Z,100996
2019-04-30T05:19:44.000Z,101001
2019-04-30T05:21:29.000Z,100995
2019-04-30T05:23:29.000Z,100996
2019-04-30T05:24:44.000Z,100993
2019-04-30T05:26:44.000Z,100995
2019-04-30T05:28:13.000Z,100995
2019-04-30T05:29:44.000Z,100994
2019-04-30T05:31:44.000Z,100992
2019-04-30T05:32:44.000Z,100998
2019-04-30T05:34:44.000Z,101000
2019-04-30T05:36:44.000Z,100996
2019-04-30T05:37:44.000Z,101000
2019-04-30T05:39:44.000Z,100995
2019-04-30T05:41:44.000Z,101000
2019-04-30T05:42:44.000Z,101000
2019-04-30T05:44:44.000Z,100998
2019-04-30T05:46:28.000Z,101000
2019-04-30T05:48:44.000Z,101005
2019-04-30T05:50:44.000Z,101002
2019-04-30T05:52:44.000Z,101003
2019-04-30T05:54:44.000Z,101001
2019-04-30T05:56:29.000Z,101001
2019-04-30T05:58:29.000Z,101003
2019-04-30T06:00:28.000Z,101003
2019-04-30T06:01:44.000Z,101003
2019-04-30T06:03:14.000Z,101009
2019-04-30T06:04:44.000Z,101008
2019-04-30T06:05:44.000Z,101013
2019-04-30T06:06:44.000Z,101007
2019-04-30T06:08:28.000Z,101010
2019-04-30T06:10:44.000Z,101010
2019-04-30T06:12:29.000Z,101016
2019-04-30T06:14:44.000Z,101012
2019-04-30T06:16:44.000Z,101018
2019-04-30T06:17:44.000Z,101013
2019-04-30T06:19:28.000Z,101014
2019-04-30T06:21:44.000Z,101010
2019-04-30T06:22:44.000Z,101010
2019-04-30T06:23:44.000Z,101009
2019-04-30T06:25:13.000Z,101010
2019-04-30T06:26:44.000Z,101012
2019-04-30T06:28:28.000Z,101006
2019-04-30T06:29:44.000Z,100999
2019-04-30T06:30:44.000Z,101000
2019-04-30T06:32:44.000Z,101004
2019-04-30T06:34:44.000Z,101004
2019-04-30T06:35:44.000Z,101005
2019-04-30T06:37:29.000Z,101007
2019-04-30T06:39:44.000Z,101002
2019-04-30T06:40:44.000Z,101008
2019-04-30T06:42:44.000Z,101009
2019-04-30T06:43:44.000Z,101014
2019-04-30T06:45:29.000Z,101019
2019-04-30T06:46:44.000Z,101014
2019-04-30T06:48:44.000Z,101016
2019-04-30T06:50:44.000Z,101013
2019-04-30T06:52:21.000Z,101019
2019-04-30T06:53:44.000Z,101017
2019-04-30T06:54:44.000Z,101019
2019-04-30T06:56:44.000Z,101019
2019-04-30T06:58:14.000Z,101018
2019-04-30T07:41:17.000Z,101034
2019-04-30T07:42:34.000Z,101031
2019-04-30T07:44:18.000Z,101032
2019-04-30T07:45:34.000Z,101038
2019-04-30T07:47:34.000Z,101035
2019-04-30T07:49:18.000Z,101036
2019-04-30T07:50:21.000Z,101031
2019-04-30T07:52:18.000Z,100996
2019-04-30T07:53:34.000Z,101036
2019-04-30T07:55:19.000Z,101037
2019-04-30T07:57:34.000Z,101042
2019-04-30T07:59:35.000Z,101048
2019-04-30T08:01:34.000Z,101045
2019-04-30T08:03:20.000Z,101042
2019-04-30T08:05:18.000Z,101051
2019-04-30T08:06:22.000Z,101046
2019-04-30T08:08:18.000Z,101033
2019-04-30T08:09:22.000Z,101047
2019-04-30T08:11:18.000Z,101045
2019-04-30T08:12:30.000Z,101051
2019-04-30T08:14:18.000Z,101053
2019-04-30T08:15:35.000Z,101053
2019-04-30T08:16:48.000Z,101057
2019-04-30T08:18:48.000Z,101055
2019-04-30T08:20:18.000Z,101053
2019-04-30T08:21:34.000Z,101059
2019-04-30T08:23:33.000Z,101059
2019-04-30T08:25:18.000Z,101051
2019-04-30T09:08:23.000Z,101045
2019-04-30T09:10:09.000Z,101040
2019-04-30T09:11:39.000Z,101035
2019-04-30T09:13:09.000Z,101036
2019-04-30T09:14:09.000Z,101035
2019-04-30T09:16:09.000Z,101038
2019-04-30T09:17:54.000Z,101026
2019-04-30T09:19:09.000Z,101029
2019-04-30T09:20:09.000Z,101028
2019-04-30T09:21:54.000Z,101027
2019-04-30T09:23:09.000Z,101028
2019-04-30T09:25:09.000Z,101027
2019-04-30T09:26:09.000Z,101028
2019-04-30T09:28:09.000Z,101035
2019-04-30T09:30:09.000Z,101034
2019-04-30T09:31:39.000Z,101034
2019-04-30T09:33:09.000Z,101035
2019-04-30T09:34:54.000Z,101035
2019-04-30T09:36:09.000Z,101040
2019-04-30T09:37:40.000Z,101032
2019-04-30T09:39:10.000Z,101040
2019-04-30T09:40:40.000Z,101041
2019-04-30T09:41:56.000Z,101039
2019-04-30T09:43:10.000Z,101036
2019-04-30T09:44:55.000Z,101033
2019-04-30T09:46:10.000Z,101037
2019-04-30T09:47:40.000Z,101041
2019-04-30T09:49:10.000Z,101038
2019-04-30T09:50:40.000Z,101033
2019-04-30T09:51:41.000Z,101036
2019-04-30T09:53:40.000Z,101036
2019-04-30T09:54:40.000Z,101029
2019-04-30T09:56:55.000Z,101030
2019-04-30T09:58:10.000Z,101034
2019-04-30T10:00:10.000Z,101034
2019-04-30T10:01:10.000Z,101036
2019-04-30T10:02:55.000Z,101032
2019-04-30T10:04:41.000Z,101028
2019-04-30T10:06:10.000Z,101025
2019-04-30T10:07:55.000Z,101030
2019-04-30T10:10:10.000Z,101018
2019-04-30T10:11:10.000Z,101021
2019-04-30T10:12:10.000Z,101017
2019-04-30T10:13:10.000Z,101012
2019-04-30T10:14:40.000Z,101009
2019-04-30T10:15:55.000Z,101005
2019-04-30T10:17:10.000Z,101001
2019-04-30T10:19:10.000Z,100998
2019-04-30T10:21:10.000Z,100998
2019-04-30T10:22:10.000Z,101003
2019-04-30T10:23:55.000Z,100997
2019-04-30T10:26:10.000Z,100996
2019-04-30T10:27:10.000Z,101000
2019-04-30T10:29:10.000Z,100995
2019-04-30T10:31:10.000Z,100993
2019-04-30T10:32:10.000Z,100990
2019-04-30T10:33:10.000Z,100997
2019-04-30T10:34:10.000Z,100990
2019-04-30T10:36:10.000Z,100995
2019-04-30T10:38:10.000Z,100992
2019-04-30T10:39:55.000Z,100986
2019-04-30T10:41:10.000Z,100987
2019-04-30T10:43:10.000Z,100980
2019-04-30T10:45:10.000Z,100977
2019-04-30T10:46:10.000Z,100980
2019-04-30T10:47:54.000Z,100973
2019-04-30T10:49:10.000Z,100975
2019-04-30T10:50:40.000Z,100965
2019-04-30T10:52:10.000Z,100967
2019-04-30T10:53:10.000Z,100971
2019-04-30T10:55:10.000Z,100964
2019-04-30T10:57:10.000Z,100959
2019-04-30T10:58:10.000Z,100959
2019-04-30T11:00:10.000Z,100956
2019-04-30T11:02:10.000Z,100955
2019-04-30T11:03:40.000Z,100952
2019-04-30T11:05:10.000Z,100953
2019-04-30T11:07:10.000Z,100955
2019-04-30T11:08:10.000Z,100953
2019-04-30T11:09:10.000Z,100957
2019-04-30T11:11:10.000Z,100952
2019-04-30T11:13:10.000Z,100958
2019-04-30T11:14:54.000Z,100960
2019-04-30T11:16:10.000Z,100957
2019-04-30T11:17:40.000Z,100958
2019-04-30T11:19:39.000Z,100954
2019-04-30T11:20:40.000Z,100950
2019-04-30T11:21:40.000Z,100946
2019-04-30T11:23:40.000Z,100947
2019-04-30T11:25:41.000Z,100939
2019-04-30T11:26:41.000Z,100940
2019-04-30T11:28:40.000Z,100945
2019-04-30T11:30:40.000Z,100943
2019-04-30T11:32:40.000Z,100937
2019-04-30T11:35:10.000Z,100939
2019-04-30T11:37:10.000Z,100929
2019-04-30T11:39:10.000Z,100926
2019-04-30T11:41:10.000Z,100929
2019-04-30T11:43:10.000Z,100925
2019-04-30T11:44:10.000Z,100926
2019-04-30T11:46:10.000Z,100921
2019-04-30T11:47:10.000Z,100923
2019-04-30T11:48:54.000Z,100919
2019-04-30T11:50:10.000Z,100923
2019-04-30T11:52:10.000Z,100921
2019-04-30T11:54:10.000Z,100921
2019-04-30T11:56:10.000Z,100915
2019-04-30T11:58:10.000Z,100908
2019-04-30T12:00:10.000Z,100895
2019-04-30T12:02:10.000Z,100899
2019-04-30T12:03:54.000Z,100903
2019-04-30T12:05:10.000Z,100899
2019-04-30T12:06:10.000Z,100900
2019-04-30T12:07:10.000Z,100903
2019-04-30T12:09:10.000Z,100904
2019-04-30T12:11:10.000Z,100889
2019-04-30T12:13:10.000Z,100888
2019-04-30T12:14:10.000Z,100883
2019-04-30T12:15:54.000Z,100893
2019-04-30T12:17:10.000Z,100894
2019-04-30T12:18:10.000Z,100886
2019-04-30T12:20:10.000Z,100893
2019-04-30T12:21:54.000Z,100893
2019-04-30T12:23:10.000Z,100889
2019-04-30T12:24:55.000Z,100887
2019-04-30T12:26:55.000Z,100888
2019-04-30T12:28:10.000Z,100886
2019-04-30T12:30:10.000Z,100889
2019-04-30T12:32:10.000Z,100886
2019-04-30T12:33:10.000Z,100884
2019-04-30T12:35:10.000Z,100893
2019-04-30T12:37:10.000Z,100890
2019-04-30T12:39:10.000Z,100887
2019-04-30T12:40:54.000Z,100888
2019-04-30T12:43:10.000Z,100887
2019-04-30T12:44:10.000Z,100889
2019-04-30T12:45:54.000Z,100884
2019-04-30T12:48:10.000Z,100875
2019-04-30T12:50:10.000Z,100870
2019-04-30T12:51:10.000Z,100872
2019-04-30T12:53:10.000Z,100863
2019-04-30T12:54:10.000Z,100866
2019-04-30T12:56:10.000Z,100860
2019-04-30T12:57:10.000Z,100856
2019-04-30T12:59:10.000Z,100854
2019-04-30T13:00:10.000Z,100869
2019-04-30T13:01:10.000Z,100858
2019-04-30T13:03:10.000Z,100863
2019-04-30T13:04:54.000Z,100860
2019-04-30T13:05:55.000Z,100864
2019-04-30T13:07:40.000Z,100863
2019-04-30T13:08:41.000Z,100858
2019-04-30T13:09:41.000Z,100863
2019-04-30T13:11:40.000Z,100860
2019-04-30T13:12:40.000Z,100856
2019-04-30T13:13:41.000Z,100858
2019-04-30T13:14:52.000Z,100860
2019-04-30T13:16:10.000Z,100858
2019-04-30T13:17:10.000Z,100855
2019-04-30T13:18:10.000Z,100857
2019-04-30T13:19:55.000Z,100854
2019-04-30T13:20:55.000Z,100854
2019-04-30T13:22:10.000Z,100849
2019-04-30T13:24:10.000Z,100847
2019-04-30T13:25:51.000Z,100842
2019-04-30T13:27:10.000Z,100847
2019-04-30T13:28:10.000Z,100843
2019-04-30T13:30:10.000Z,100830
2019-04-30T13:31:55.000Z,100830
2019-04-30T13:33:10.000Z,100830
2019-04-30T13:35:10.000Z,100826
2019-04-30T13:36:10.000Z,100818
2019-04-30T13:38:10.000Z,100826
2019-04-30T13:39:52.000Z,100817
2019-04-30T13:41:10.000Z,100817
2019-04-30T13:43:10.000Z,100818
2019-04-30T13:45:10.000Z,100819
2019-04-30T13:47:10.000Z,100806
2019-04-30T13:49:10.000Z,100804
2019-04-30T13:51:10.000Z,100811
2019-04-30T13:53:10.000Z,100809
2019-04-30T13:55:10.000Z,100807
2019-04-30T13:57:10.000Z,100804
2019-04-30T13:58:10.000Z,100806
2019-04-30T13:59:55.000Z,100798
2019-04-30T14:01:10.000Z,100801
2019-04-30T14:03:10.000Z,100796
2019-04-30T14:05:10.000Z,100797
2019-04-30T14:07:10.000Z,100791
2019-04-30T14:08:10.000Z,100788
2019-04-30T14:10:10.000Z,100779
2019-04-30T14:11:10.000Z,100791
2019-04-30T14:13:10.000Z,100786
2019-04-30T14:15:10.000Z,100781
2019-04-30T14:17:10.000Z,100783
2019-04-30T14:18:10.000Z,100781
2019-04-30T14:20:10.000Z,100781
2019-04-30T14:21:10.000Z,100785
2019-04-30T14:22:55.000Z,100778
2019-04-30T14:25:10.000Z,100780
2019-04-30T14:26:40.000Z,100777
2019-04-30T14:27:40.000Z,100774
2019-04-30T14:29:10.000Z,100777
2019-04-30T14:30:10.000Z,100773
2019-04-30T14:31:10.000Z,100771
2019-04-30T14:33:10.000Z,100774
2019-04-30T14:35:11.000Z,100770
2019-04-30T14:37:10.000Z,100773
2019-04-30T14:38:10.000Z,100774
2019-04-30T14:39:41.000Z,100767
2019-04-30T14:41:41.000Z,100764
2019-04-30T14:43:40.000Z,100768
2019-04-30T14:44:41.000Z,100767
2019-04-30T14:46:40.000Z,100767
2019-04-30T14:48:41.000Z,100767
2019-04-30T14:51:10.000Z,100763
2019-04-30T14:52:10.000Z,100769
2019-04-30T14:53:10.000Z,100765
2019-04-30T14:55:10.000Z,100758
2019-04-30T14:57:10.000Z,100761
2019-04-30T14:59:10.000Z,100762
2019-04-30T15:00:10.000Z,100761
2019-04-30T15:02:10.000Z,100765
2019-04-30T15:04:10.000Z,100758
2019-04-30T15:05:40.000Z,100749
2019-04-30T15:07:10.000Z,100759
2019-04-30T15:08:10.000Z,100763
2019-04-30T15:09:10.000Z,100754
2019-04-30T15:11:10.000Z,100756
2019-04-30T15:13:10.000Z,100754
2019-04-30T15:14:40.000Z,100752
2019-04-30T15:16:10.000Z,100750
2019-04-30T15:17:10.000Z,100752
2019-04-30T15:23:55.000Z,100745
2019-04-30T15:25:25.000Z,100753
2019-04-30T15:26:55.000Z,100745
2019-04-30T15:28:25.000Z,100749
2019-04-30T15:29:55.000Z,100743
2019-04-30T15:31:25.000Z,100745
2019-04-30T15:32:25.000Z,100745
2019-04-30T15:33:55.000Z,100739
2019-04-30T15:35:25.000Z,100747
2019-04-30T15:37:10.000Z,100744
2019-04-30T15:39:25.000Z,100741
2019-04-30T15:41:25.000Z,100742
2019-04-30T15:42:25.000Z,100742
2019-04-30T15:44:25.000Z,100743
2019-04-30T15:45:55.000Z,100737
2019-04-30T15:47:25.000Z,100741
2019-04-30T15:48:25.000Z,100737
2019-04-30T15:50:25.000Z,100734
2019-04-30T15:52:10.000Z,100729
2019-04-30T15:54:25.000Z,100731
2019-04-30T15:56:25.000Z,100727
2019-04-30T15:58:25.000Z,100726
2019-04-30T16:00:25.000Z,100726
2019-04-30T16:01:25.000Z,100721
2019-04-30T16:02:55.000Z,100723
2019-04-30T16:04:25.000Z,100716
2019-04-30T16:05:25.000Z,100722
2019-04-30T16:06:25.000Z,100716
2019-04-30T16:08:10.000Z,100717
2019-04-30T16:09:25.000Z,100716
2019-04-30T16:10:25.000Z,100717
2019-04-30T16:12:25.000Z,100716
2019-04-30T16:13:25.000Z,100717
2019-04-30T16:15:25.000Z,100708
2019-04-30T16:16:54.000Z,100711
2019-04-30T16:18:25.000Z,100716
2019-04-30T16:20:25.000Z,100711
2019-04-30T16:21:25.000Z,100708
2019-04-30T16:22:25.000Z,100712
2019-04-30T16:24:25.000Z,100701
2019-04-30T16:26:25.000Z,100704
2019-04-30T16:28:25.000Z,100710
2019-04-30T16:29:25.000Z,100704
2019-04-30T16:31:25.000Z,100705
2019-04-30T16:33:25.000Z,100703
2019-04-30T16:35:10.000Z,100701
2019-04-30T16:37:25.000Z,100694
2019-04-30T16:38:25.000Z,100695
2019-04-30T16:40:10.000Z,100697
2019-04-30T16:41:25.000Z,100691
2019-04-30T16:43:25.000Z,100701
2019-04-30T16:45:10.000Z,100700
2019-04-30T16:46:25.000Z,100697
2019-04-30T16:48:10.000Z,100700
2019-04-30T16:49:10.000Z,100695
2019-04-30T16:50:25.000Z,100701
2019-04-30T16:51:25.000Z,100703
2019-04-30T16:53:25.000Z,100703
2019-04-30T16:55:25.000Z,100701
2019-04-30T16:56:25.000Z,100697
2019-04-30T16:58:25.000Z,100704
2019-04-30T16:59:25.000Z,100702
2019-04-30T17:00:25.000Z,100701
2019-04-30T17:01:55.000Z,100701
2019-04-30T17:45:02.000Z,100713
2019-04-30T17:46:35.000Z,100720
2019-04-30T17:48:48.000Z,100715
2019-04-30T17:50:33.000Z,100719
2019-04-30T17:51:48.000Z,100725
2019-04-30T17:52:48.000Z,100723
2019-04-30T17:54:48.000Z,100723
2019-04-30T17:56:48.000Z,100723
2019-04-30T17:58:20.000Z,100720
2019-04-30T17:59:48.000Z,100726
2019-04-30T18:01:48.000Z,100731
2019-04-30T18:03:33.000Z,100726
2019-04-30T18:05:34.000Z,100733
2019-04-30T18:07:34.000Z,100732
2019-04-30T18:08:48.000Z,100734
2019-04-30T18:10:34.000Z,100732
2019-04-30T18:12:34.000Z,100731
2019-04-30T18:13:48.000Z,100727
2019-04-30T18:15:48.000Z,100738
2019-04-30T18:16:48.000Z,100734
2019-04-30T18:18:48.000Z,100729
2019-04-30T18:20:18.000Z,100737
2019-04-30T18:21:33.000Z,100735
2019-04-30T18:23:18.000Z,100745
2019-04-30T18:24:18.000Z,100743
2019-04-30T18:25:48.000Z,100742
2019-04-30T18:26:48.000Z,100744
2019-04-30T18:28:18.000Z,100741
2019-04-30T18:29:48.000Z,100743
2019-04-30T18:31:48.000Z,100744
2019-04-30T18:33:48.000Z,100738
2019-04-30T18:35:35.000Z,100740
2019-04-30T18:37:33.000Z,100742
2019-04-30T18:38:48.000Z,100742
2019-04-30T18:40:48.000Z,100747
2019-04-30T18:42:18.000Z,100736
2019-04-30T18:43:35.000Z,100748
2019-04-30T18:45:18.000Z,100745
2019-04-30T18:46:34.000Z,100748
2019-04-30T18:48:34.000Z,100746
2019-04-30T18:49:48.000Z,100749
2019-04-30T18:51:18.000Z,100744
2019-04-30T18:52:33.000Z,100747
2019-04-30T18:53:48.000Z,100745
2019-04-30T18:55:18.000Z,100745
2019-04-30T18:56:18.000Z,100740
2019-04-30T18:57:48.000Z,100747
2019-04-30T18:59:18.000Z,100747
2019-04-30T19:00:34.000Z,100745
2019-04-30T19:01:48.000Z,100750
2019-04-30T19:03:18.000Z,100748
2019-04-30T19:04:33.000Z,100746
2019-04-30T19:05:48.000Z,100745
2019-04-30T19:07:48.000Z,100745
2019-04-30T19:09:18.000Z,100750
2019-04-30T19:10:33.000Z,100750
2019-04-30T19:12:34.000Z,100750
2019-04-30T19:14:34.000Z,100754
2019-04-30T19:16:17.000Z,100754
2019-04-30T19:17:18.000Z,100755
2019-04-30T20:00:28.000Z,100774
2019-04-30T20:01:59.000Z,100776
2019-04-30T20:02:59.000Z,100778
2019-04-30T20:03:59.000Z,100773
2019-04-30T20:05:59.000Z,100766
2019-04-30T20:06:59.000Z,100766
2019-04-30T20:08:59.000Z,100773
2019-04-30T20:10:59.000Z,100773
2019-04-30T20:11:59.000Z,100769
2019-04-30T20:13:29.000Z,100770
2019-04-30T20:56:44.000Z,100753
2019-04-30T20:58:14.000Z,100762
2019-04-30T20:59:59.000Z,100761
2019-04-30T21:01:00.000Z,100753
2019-04-30T21:02:30.000Z,100759
2019-04-30T21:03:30.000Z,100761
2019-04-30T21:05:15.000Z,100757
2019-04-30T21:07:30.000Z,100757
2019-04-30T21:08:30.000Z,100759
2019-04-30T21:10:15.000Z,100756
2019-04-30T21:11:30.000Z,100753
2019-04-30T21:13:14.000Z,100753
2019-04-30T21:14:30.000Z,100756
2019-04-30T21:15:30.000Z,100753
2019-04-30T21:17:30.000Z,100750
2019-04-30T21:18:30.000Z,100755
2019-04-30T21:20:00.000Z,100754
2019-04-30T21:21:30.000Z,100753
2019-04-30T21:22:30.000Z,100750
2019-04-30T21:24:15.000Z,100747
2019-04-30T21:26:15.000Z,100745
2019-04-30T21:27:15.000Z,100750
2019-04-30T21:29:00.000Z,100743
2019-04-30T21:30:30.000Z,100750
2019-04-30T21:32:00.000Z,100739
2019-04-30T21:33:15.000Z,100741
2019-04-30T21:35:30.000Z,100746
2019-04-30T21:36:30.000Z,100743
2019-04-30T21:38:00.000Z,100741
2019-04-30T21:39:30.000Z,100737
2019-04-30T21:40:30.000Z,100743
2019-04-30T21:42:30.000Z,100739
2019-04-30T21:43:30.000Z,100736
2019-04-30T21:45:30.000Z,100731
2019-04-30T21:47:30.000Z,100734
2019-04-30T21:49:30.000Z,100737
2019-04-30T21:50:30.000Z,100730
2019-04-30T21:51:30.000Z,100733
2019-04-30T21:52:30.000Z,100734
2019-04-30T21:53:30.000Z,100733
2019-04-30T21:55:30.000Z,100729
2019-04-30T21:56:30.000Z,100721
2019-04-30T21:58:30.000Z,100722
2019-04-30T22:00:30.000Z,100719
2019-04-30T22:01:30.000Z,100718
2019-04-30T22:03:30.000Z,100723
2019-04-30T22:05:30.000Z,100719
2019-04-30T22:06:30.000Z,100720
2019-04-30T22:08:30.000Z,100722
2019-04-30T22:10:30.000Z,100720
2019-04-30T22:11:30.000Z,100718
2019-04-30T22:13:15.000Z,100719
2019-04-30T22:14:30.000Z,100713
2019-04-30T22:15:30.000Z,100713
2019-04-30T22:17:30.000Z,100722
2019-04-30T22:19:15.000Z,100717
2019-04-30T22:20:30.000Z,100719
2019-04-30T22:22:15.000Z,100718
2019-04-30T22:23:30.000Z,100721
2019-04-30T22:25:30.000Z,100722
2019-04-30T22:26:30.000Z,100721
2019-04-30T22:28:00.000Z,100721
2019-04-30T22:29:30.000Z,100721
2019-04-30T22:31:30.000Z,100724
2019-04-30T22:32:30.000Z,100716
2019-04-30T22:34:30.000Z,100725
2019-04-30T22:36:15.000Z,100717
2019-04-30T22:37:30.000Z,100718
2019-04-30T22:39:30.000Z,100713
2019-04-30T22:41:30.000Z,100712
2019-04-30T22:42:30.000Z,100707
2019-04-30T22:44:30.000Z,100710
2019-04-30T22:45:30.000Z,100706
2019-04-30T22:47:15.000Z,100702
2019-04-30T22:48:30.000Z,100704
2019-04-30T22:49:30.000Z,100706
2019-04-30T22:51:00.000Z,100709
2019-04-30T22:52:30.000Z,100711
2019-04-30T22:54:30.000Z,100709
2019-04-30T22:55:30.000Z,100710
2019-04-30T22:57:30.000Z,100718
2019-04-30T22:58:30.000Z,100714
2019-04-30T22:59:30.000Z,100716
2019-04-30T23:00:30.000Z,100711
2019-04-30T23:02:30.000Z,100711
2019-04-30T23:03:30.000Z,100705
2019-04-30T23:05:30.000Z,100697
2019-04-30T23:07:30.000Z,100697
2019-04-30T23:08:30.000Z,100701
2019-04-30T23:10:15.000Z,100712
2019-04-30T23:11:30.000Z,100713
2019-04-30T23:13:30.000Z,100710
2019-04-30T23:14:30.000Z,100714
2019-04-30T23:16:30.000Z,100706
2019-04-30T23:18:15.000Z,100704
2019-04-30T23:20:30.000Z,100685
2019-04-30T23:21:30.000Z,100691
2019-04-30T23:23:30.000Z,100683
2019-04-30T23:24:30.000Z,100689
2019-04-30T23:26:15.000Z,100693
2019-04-30T23:27:29.000Z,100694
2019-04-30T23:28:59.000Z,100695
2019-04-30T23:29:59.000Z,100692
